Wading River, New York
Current Conditions -  °F | °C
As of 2:56 AM on Thursday 27 Nov 2014 (Local Time) from KHWV Reporting Station
Overcast Overcast  
Wind Chill: 30°   Ceiling: 5500
Heat Index: 36°   Visibility: 7mi
Dew Point: 34°   Wind: 8mph
Humidity: 93%   Direction: 320°NW
Pressure: 29.86"   Gusts: NA
Location:  40.95°N, 72.84°W
Report Text: KHWV 270756Z AUTO 32007KT 7SM OVC055 02/01 A2986 RMK AO2 RAE29UPB29E34 SLP113 P0002 T00220011 TSNO $
Loading
Personal Weather Stations






























Interactive Weather Map New forecast layout! Learn more

10-Day Weather Forecast

Advertisements
Track Severe Weather on mobile